Time;durP1;ratioP1;P1;durP2;ratioP2;P2;SDS_P1;SDS_P2;PMS_P1;PMS_P2;Temp;Humidity;BMP_temperature;BMP_pressure;BME280_temperature;BME280_humidity;BME280_pressure;Samples;Min_cycle;Max_cycle;Signal;HPM_P1;HPM_P2
2022/09/14 00:00:44;;;;;;;15.65;4.38;;;;;;;20.07;94.74;99302.69;5076435;28;20072;-68
2022/09/14 00:03:10;;;;;;;7.85;3.55;;;;;;;20.08;93.04;99307.09;5053050;28;20028;-68
2022/09/14 00:05:35;;;;;;;11.30;4.20;;;;;;;20.10;93.91;99316.00;5072798;28;20035;-68
2022/09/14 00:08:01;;;;;;;12.23;4.20;;;;;;;20.09;93.75;99317.22;5053051;28;20432;-68
2022/09/14 00:10:26;;;;;;;13.23;4.68;;;;;;;20.09;95.51;99303.91;5051899;28;20032;-68
2022/09/14 00:12:52;;;;;;;10.75;3.97;;;;;;;20.10;95.94;99316.00;5073363;28;20066;-68
2022/09/14 00:15:17;;;;;;;8.60;4.00;;;;;;;20.12;94.95;99310.78;5075967;28;20484;-68
2022/09/14 00:17:43;;;;;;;12.20;4.03;;;;;;;20.10;95.20;99301.91;5060435;28;20062;-68
2022/09/14 00:20:08;;;;;;;10.82;4.15;;;;;;;20.11;94.36;99294.25;5076026;28;20066;-68
2022/09/14 00:22:34;;;;;;;10.98;4.32;;;;;;;20.11;95.71;99306.34;5063791;28;20087;-68
2022/09/14 00:24:59;;;;;;;11.77;4.32;;;;;;;20.11;95.00;99302.72;5061747;28;20503;-68
2022/09/14 00:27:25;;;;;;;11.23;4.25;;;;;;;20.10;95.90;99299.09;5058340;28;20035;-68
2022/09/14 00:29:50;;;;;;;10.20;4.60;;;;;;;20.08;96.20;99301.47;5077801;28;20032;-68
2022/09/14 00:32:16;;;;;;;13.57;4.13;;;;;;;20.07;94.36;99288.59;5042846;28;20032;-68
2022/09/14 00:34:41;;;;;;;10.80;4.05;;;;;;;20.09;94.60;99287.00;5077339;28;20040;-68
2022/09/14 00:37:07;;;;;;;10.63;3.92;;;;;;;20.06;94.69;99295.44;5041158;28;20044;-68
2022/09/14 00:39:32;;;;;;;10.63;3.97;;;;;;;20.02;93.98;99286.13;5057112;28;20385;-68
2022/09/14 00:41:58;;;;;;;10.73;3.97;;;;;;;20.00;93.07;99289.34;5047313;28;20067;-68
2022/09/14 00:44:23;;;;;;;12.32;3.83;;;;;;;19.97;92.29;99278.81;5044543;28;20020;-68
2022/09/14 00:46:53;;;;;;;8.15;4.15;;;;;;;19.97;91.58;99273.19;5102096;28;20054;-68
2022/09/14 00:49:23;;;;;;;12.82;3.30;;;;;;;19.95;91.47;99281.22;5063070;28;20502;-68
2022/09/14 00:52:07;;;;;;;10.20;4.25;;;;;;;19.92;91.85;99278.38;5076154;28;20027;-68
2022/09/14 00:54:43;;;;;;;10.90;4.00;;;;;;;19.85;92.35;99271.47;5041672;28;20040;-68
2022/09/14 00:57:09;;;;;;;9.60;4.07;;;;;;;19.82;92.36;99262.97;5030118;28;20482;-68
2022/09/14 00:59:36;;;;;;;11.32;3.95;;;;;;;19.80;93.92;99266.16;5058043;28;20112;-68
2022/09/14 01:02:01;;;;;;;10.20;3.85;;;;;;;19.78;93.15;99260.13;5038244;28;20472;-68
2022/09/14 01:04:27;;;;;;;11.25;3.80;;;;;;;19.73;93.19;99257.66;5037890;28;20032;-68
2022/09/14 01:07:01;;;;;;;9.60;3.45;;;;;;;19.71;92.54;99250.78;5055076;28;20024;-68
2022/09/14 01:09:35;;;;;;;12.27;4.03;;;;;;;19.67;91.96;99256.41;5067182;28;20031;-68
2022/09/14 01:12:06;;;;;;;9.60;3.58;;;;;;;19.64;91.97;99255.13;5081968;28;20028;-68
2022/09/14 01:14:45;;;;;;;9.98;3.55;;;;;;;19.61;92.07;99255.06;5084801;28;20032;-68
2022/09/14 01:17:20;;;;;;;8.13;3.45;;;;;;;19.57;92.43;99265.50;5060945;28;20113;-68
2022/09/14 01:19:52;;;;;;;8.50;3.55;;;;;;;19.55;92.42;99262.25;5064349;28;20032;-68
2022/09/14 01:22:24;;;;;;;5.45;3.42;;;;;;;19.52;92.97;99257.38;5066481;28;20472;-68
2022/09/14 01:24:56;;;;;;;6.75;3.22;;;;;;;19.49;92.61;99264.59;5067623;28;20107;-68
2022/09/14 01:27:34;;;;;;;7.80;3.83;;;;;;;19.47;92.14;99263.34;5064300;28;20062;-68
2022/09/14 01:30:04;;;;;;;8.27;3.58;;;;;;;19.42;93.56;99265.34;5062046;28;20370;-68
2022/09/14 01:32:37;;;;;;;9.10;3.88;;;;;;;19.40;93.34;99256.44;5069849;28;20050;-68
2022/09/14 01:35:04;;;;;;;7.68;3.45;;;;;;;19.37;93.76;99260.03;5064637;28;20036;-68
2022/09/14 01:37:44;;;;;;;11.98;3.70;;;;;;;19.35;94.84;99256.78;5080347;28;20028;-68
2022/09/14 01:40:24;;;;;;;10.52;4.13;;;;;;;19.35;94.24;99259.59;5064765;28;20059;-68
2022/09/14 01:43:05;;;;;;;6.88;3.53;;;;;;;19.34;94.05;99258.00;5080663;28;20032;-68
2022/09/14 01:45:31;;;;;;;8.77;3.67;;;;;;;19.32;94.98;99246.31;5045819;28;20058;-68
2022/09/14 01:48:01;;;;;;;10.13;3.65;;;;;;;19.32;93.46;99243.50;5065201;28;20481;-68
2022/09/14 01:50:42;;;;;;;10.43;3.33;;;;;;;19.33;94.02;99256.34;5046386;28;20037;-68
2022/09/14 01:53:15;;;;;;;7.75;3.53;;;;;;;19.30;93.85;99254.31;5042356;28;20028;-68
2022/09/14 01:55:55;;;;;;;11.82;3.55;;;;;;;19.30;94.24;99253.50;5079972;28;20032;-68
2022/09/14 01:58:35;;;;;;;6.35;3.17;;;;;;;19.33;93.28;99247.91;5046222;28;20047;-68
2022/09/14 02:01:02;;;;;;;9.48;3.50;;;;;;;19.29;94.00;99241.44;5080366;28;20113;-68
2022/09/14 02:03:33;;;;;;;6.13;3.40;;;;;;;19.27;94.24;99238.19;5056104;28;20455;-68
2022/09/14 02:06:08;;;;;;;7.63;3.33;;;;;;;19.30;93.78;99236.63;5075146;28;20020;-68
2022/09/14 02:08:34;;;;;;;6.50;3.25;;;;;;;19.27;93.94;99235.38;5069232;28;20036;-68
2022/09/14 02:10:59;;;;;;;7.95;3.40;;;;;;;19.26;93.75;99230.94;5086531;28;21163;-68
2022/09/14 02:13:25;;;;;;;10.60;3.35;;;;;;;19.26;93.44;99230.94;5054321;28;20024;-68
2022/09/14 02:15:50;;;;;;;11.35;3.65;;;;;;;19.26;93.23;99236.59;5046844;28;20100;-68
2022/09/14 02:18:15;;;;;;;8.15;3.10;;;;;;;19.26;93.70;99228.13;5055841;28;20043;-68
2022/09/14 02:20:53;;;;;;;11.90;3.50;;;;;;;19.21;94.02;99231.28;5046563;28;20039;-68
2022/09/14 02:23:19;;;;;;;8.27;3.40;;;;;;;19.19;93.32;99225.22;5041646;28;20032;-68
2022/09/14 02:25:45;;;;;;;9.38;3.30;;;;;;;19.18;93.20;99224.41;5063323;28;20089;-68
2022/09/14 02:28:10;;;;;;;7.00;3.10;;;;;;;19.18;92.80;99226.44;5037414;28;20028;-68
2022/09/14 02:30:53;;;;;;;8.43;2.97;;;;;;;19.16;94.17;99226.00;5081576;28;20032;-68
2022/09/14 02:33:30;;;;;;;10.30;3.03;;;;;;;19.14;94.07;99226.41;5083960;28;20132;-68
2022/09/14 02:35:58;;;;;;;9.27;3.45;;;;;;;19.09;93.16;99229.53;5063066;28;20035;-68
2022/09/14 02:38:36;;;;;;;7.15;3.03;;;;;;;19.11;93.43;99234.78;5068093;28;20032;-68
2022/09/14 02:41:07;;;;;;;7.68;3.22;;;;;;;19.10;93.85;99230.34;5034989;28;20039;-68
2022/09/14 02:44:02;;;;;;;8.57;3.10;;;;;;;19.10;94.79;99222.72;5060258;28;20028;-68
2022/09/14 02:47:13;;;;;;;6.40;3.22;;;;;;;19.10;94.56;99219.09;5076727;28;20505;-68
2022/09/14 02:49:58;;;;;;;6.55;3.00;;;;;;;19.09;94.72;99229.53;4988883;28;20034;-68
2022/09/14 02:52:34;;;;;;;7.13;3.10;;;;;;;19.10;93.90;99225.53;5079235;28;20485;-68
2022/09/14 02:55:04;;;;;;;9.70;3.22;;;;;;;19.10;94.38;99233.16;5059400;28;20031;-68
2022/09/14 02:57:29;;;;;;;9.77;3.00;;;;;;;19.10;93.95;99241.59;5053231;28;20075;-68
2022/09/14 02:59:54;;;;;;;8.32;3.45;;;;;;;19.09;94.80;99251.25;5062432;28;20040;-68
2022/09/14 03:02:20;;;;;;;10.30;3.63;;;;;;;19.09;95.61;99237.19;5077552;28;20479;-68
2022/09/14 03:04:46;;;;;;;7.47;3.38;;;;;;;19.09;96.17;99242.81;5041334;28;20120;-68
2022/09/14 03:07:11;;;;;;;10.20;3.60;;;;;;;19.09;96.03;99240.00;5058881;28;20028;-68
2022/09/14 03:09:37;;;;;;;8.25;3.03;;;;;;;19.08;95.09;99239.16;5079840;28;20039;-68
2022/09/14 03:12:02;;;;;;;9.75;3.65;;;;;;;19.07;96.21;99237.53;5048136;28;20032;-68
2022/09/14 03:14:28;;;;;;;7.55;3.20;;;;;;;19.08;96.13;99227.09;5061502;28;20036;-68
2022/09/14 03:16:53;;;;;;;8.88;3.38;;;;;;;19.09;97.27;99228.75;5046169;28;20023;-68
2022/09/14 03:19:19;;;;;;;9.30;3.00;;;;;;;19.10;94.68;99231.16;5056366;28;20035;-68
2022/09/14 03:21:44;;;;;;;11.88;4.00;;;;;;;19.12;96.27;99230.78;5071532;28;20032;-68
2022/09/14 03:24:09;;;;;;;8.75;3.15;;;;;;;19.11;95.83;99226.31;5060175;28;20032;-68
2022/09/14 03:26:37;;;;;;;11.93;3.80;;;;;;;19.11;95.75;99215.06;5043497;28;20032;-68
2022/09/14 03:29:03;;;;;;;8.85;2.70;;;;;;;19.12;94.89;99219.53;5060673;28;20025;-68
2022/09/14 03:31:28;;;;;;;14.32;3.75;;;;;;;19.12;95.06;99216.72;5062142;28;20395;-68
2022/09/14 03:33:57;;;;;;;4.82;2.47;;;;;;;19.10;94.76;99216.28;5062228;28;20043;-68
2022/09/14 03:36:24;;;;;;;10.20;3.33;;;;;;;19.12;95.67;99225.97;5077455;28;20024;-68
2022/09/14 03:38:51;;;;;;;11.80;3.33;;;;;;;19.11;96.19;99232.78;5057512;28;20053;-68
2022/09/14 03:41:16;;;;;;;9.15;3.38;;;;;;;19.14;96.20;99225.59;5038858;28;20090;-68
2022/09/14 03:43:42;;;;;;;8.20;3.20;;;;;;;19.14;97.07;99226.41;5078380;28;20043;-68
2022/09/14 03:46:09;;;;;;;9.60;3.17;;;;;;;19.13;97.74;99230.38;5080715;28;20042;-68
2022/09/14 03:48:35;;;;;;;9.65;3.65;;;;;;;19.14;98.93;99219.97;5058647;28;20027;-68
2022/09/14 03:51:02;;;;;;;11.93;3.90;;;;;;;19.16;97.60;99218.34;5055339;28;20495;-68
2022/09/14 03:53:27;;;;;;;10.07;3.35;;;;;;;19.13;97.34;99224.75;5059695;28;20488;-68
2022/09/14 03:55:53;;;;;;;12.90;3.78;;;;;;;19.13;97.43;99229.56;5074084;28;20028;-68
2022/09/14 03:58:18;;;;;;;11.63;3.35;;;;;;;19.13;98.93;99221.94;5058804;28;20541;-68
2022/09/14 04:00:44;;;;;;;12.60;3.90;;;;;;;19.12;99.11;99222.34;5075726;28;20694;-68
2022/09/14 04:03:09;;;;;;;7.50;3.00;;;;;;;19.13;98.68;99230.38;5035981;28;20032;-68
2022/09/14 04:05:34;;;;;;;12.40;3.80;;;;;;;19.12;96.69;99228.78;5078407;28;20028;-68
2022/09/14 04:08:00;;;;;;;10.35;3.60;;;;;;;19.11;97.46;99229.16;5037133;28;20043;-68
2022/09/14 04:10:26;;;;;;;7.88;2.95;;;;;;;19.13;96.73;99226.75;5061949;28;20031;-68
2022/09/14 04:12:51;;;;;;;11.20;3.30;;;;;;;19.13;96.46;99226.75;5061000;28;20085;-68
2022/09/14 04:15:17;;;;;;;8.75;3.17;;;;;;;19.12;96.48;99227.97;5061606;28;20061;-68
2022/09/14 04:17:42;;;;;;;8.18;3.50;;;;;;;19.12;96.88;99228.78;5041799;28;20024;-68
2022/09/14 04:20:08;;;;;;;6.18;2.53;;;;;;;19.15;96.22;99230.00;5051662;28;20032;-68
2022/09/14 04:22:33;;;;;;;9.77;2.97;;;;;;;19.12;96.50;99225.16;5074769;28;20103;-68
2022/09/14 04:24:59;;;;;;;11.00;3.13;;;;;;;19.11;95.81;99232.78;5078235;28;20086;-68
2022/09/14 04:27:24;;;;;;;6.90;3.17;;;;;;;19.12;95.64;99239.22;5047722;28;20039;-68
2022/09/14 04:29:50;;;;;;;8.48;2.80;;;;;;;19.12;95.43;99233.59;5061055;28;20036;-68
2022/09/14 04:32:15;;;;;;;8.02;2.70;;;;;;;19.08;95.64;99238.34;5061378;28;20024;-68
2022/09/14 04:34:41;;;;;;;9.10;2.90;;;;;;;19.08;95.51;99241.16;5059169;28;20487;-68
2022/09/14 04:37:06;;;;;;;8.95;2.55;;;;;;;19.06;96.00;99240.75;5035708;28;20111;-68
2022/09/14 04:39:32;;;;;;;9.75;2.70;;;;;;;19.02;94.42;99235.06;5077556;28;20078;-68
2022/09/14 04:41:57;;;;;;;5.75;2.85;;;;;;;19.03;94.61;99231.06;5055259;28;20025;-68
2022/09/14 04:44:23;;;;;;;7.28;2.28;;;;;;;19.01;94.41;99236.28;5078143;28;20036;-68
2022/09/14 04:46:48;;;;;;;6.18;2.40;;;;;;;18.98;94.06;99232.22;5061053;28;20028;-68
2022/09/14 04:49:17;;;;;;;6.25;2.60;;;;;;;18.95;94.97;99230.16;5051209;28;20032;-68
2022/09/14 04:51:42;;;;;;;5.80;2.60;;;;;;;18.96;94.55;99237.41;5078474;28;20058;-68
2022/09/14 04:54:08;;;;;;;7.07;2.10;;;;;;;18.93;94.52;99232.53;5058792;28;20024;-68
2022/09/14 04:56:35;;;;;;;7.75;2.08;;;;;;;18.93;94.51;99243.78;5041208;28;20059;-68
2022/09/14 04:59:03;;;;;;;7.70;2.63;;;;;;;18.91;95.21;99232.09;5060753;28;20035;-68
2022/09/14 05:01:29;;;;;;;7.53;2.92;;;;;;;18.92;94.38;99236.56;5070630;28;20059;-68
2022/09/14 05:03:55;;;;;;;7.30;2.20;;;;;;;18.90;94.51;99238.13;5031131;28;20037;-68
2022/09/14 05:06:22;;;;;;;7.03;2.78;;;;;;;18.90;94.76;99238.94;5030555;28;20033;-68
2022/09/14 05:08:48;;;;;;;11.63;3.15;;;;;;;18.90;95.88;99243.75;5051926;28;20032;-68
2022/09/14 05:11:15;;;;;;;6.85;2.28;;;;;;;18.90;94.81;99243.75;5050179;28;20035;-68
2022/09/14 05:13:41;;;;;;;7.50;2.30;;;;;;;18.87;95.75;99236.88;5045548;28;20025;-68
2022/09/14 05:16:13;;;;;;;7.25;2.60;;;;;;;18.88;95.01;99244.13;5058636;28;20170;-68
2022/09/14 05:18:39;;;;;;;6.93;2.63;;;;;;;18.86;95.30;99243.72;5063838;28;20477;-68
2022/09/14 05:21:06;;;;;;;8.20;2.63;;;;;;;18.86;96.15;99243.72;5043561;28;20109;-68
2022/09/14 05:23:32;;;;;;;6.70;2.33;;;;;;;18.89;95.31;99237.31;5034314;28;20429;-68
2022/09/14 05:25:58;;;;;;;7.22;2.50;;;;;;;18.86;95.51;99237.25;5051949;28;20074;-68
2022/09/14 05:28:24;;;;;;;5.43;2.20;;;;;;;18.84;94.82;99240.47;5050202;28;20054;-68
2022/09/14 05:30:50;;;;;;;10.55;2.17;;;;;;;18.84;94.64;99240.47;5047146;28;20020;-68
2022/09/14 05:33:15;;;;;;;5.82;2.22;;;;;;;18.84;95.51;99245.28;5049245;28;20025;-68
2022/09/14 05:35:40;;;;;;;4.22;2.10;;;;;;;18.83;95.53;99243.63;5067318;28;21256;-68
2022/09/14 05:38:06;;;;;;;10.90;2.50;;;;;;;18.83;96.08;99252.88;5067605;28;20032;-68
2022/09/14 05:40:31;;;;;;;5.55;2.67;;;;;;;18.81;94.83;99255.28;5027665;28;20398;-68
2022/09/14 05:42:57;;;;;;;8.60;2.58;;;;;;;18.83;95.80;99250.06;5046669;28;20037;-68
2022/09/14 05:45:22;;;;;;;6.63;2.75;;;;;;;18.82;95.65;99245.66;5054086;28;20032;-68
2022/09/14 05:47:48;;;;;;;5.93;2.28;;;;;;;18.83;95.52;99249.28;5071756;28;20024;-68
2022/09/14 05:50:13;;;;;;;9.07;2.75;;;;;;;18.79;96.01;99249.22;5080994;28;20047;-68
2022/09/14 05:52:39;;;;;;;6.88;1.95;;;;;;;18.80;95.46;99245.22;5071213;28;20460;-68
2022/09/14 05:55:05;;;;;;;11.45;2.58;;;;;;;18.80;95.56;99248.03;5040758;28;20024;-68
2022/09/14 05:57:31;;;;;;;6.13;1.92;;;;;;;18.84;95.13;99251.72;5049680;28;20075;-68
2022/09/14 05:59:57;;;;;;;6.38;2.30;;;;;;;18.81;95.77;99244.03;5044764;28;20123;-68
2022/09/14 06:02:22;;;;;;;6.70;2.05;;;;;;;18.81;96.51;99249.66;5049577;28;20064;-68
2022/09/14 06:04:48;;;;;;;5.88;2.10;;;;;;;18.83;97.72;99254.91;5051195;28;20043;-68
2022/09/14 06:07:13;;;;;;;6.53;2.33;;;;;;;18.83;97.80;99249.28;5052334;28;20175;-68
2022/09/14 06:09:39;;;;;;;9.52;2.45;;;;;;;18.83;97.45;99254.91;5049657;28;20476;-68
2022/09/14 06:12:04;;;;;;;10.18;2.67;;;;;;;18.84;98.95;99253.72;5066283;28;20033;-68
2022/09/14 06:14:30;;;;;;;9.82;2.90;;;;;;;18.81;98.63;99255.28;5066706;28;20029;-68
2022/09/14 06:16:58;;;;;;;8.65;2.90;;;;;;;18.82;98.05;99253.28;5035132;28;20081;-68
2022/09/14 06:19:23;;;;;;;7.13;2.58;;;;;;;18.81;98.84;99255.28;5038532;28;20036;-68
2022/09/14 06:21:49;;;;;;;7.43;2.55;;;;;;;18.83;97.62;99261.31;5037385;28;20036;-68
2022/09/14 06:24:15;;;;;;;5.57;2.17;;;;;;;18.85;98.60;99249.72;5058392;28;20031;-68
2022/09/14 06:26:40;;;;;;;8.48;2.25;;;;;;;18.84;98.18;99257.34;5052688;28;20609;-68
2022/09/14 06:29:06;;;;;;;5.50;2.05;;;;;;;18.87;97.80;99255.78;5039569;28;20024;-68
2022/09/14 06:31:32;;;;;;;7.32;2.28;;;;;;;18.87;97.74;99256.56;5052294;28;20025;-68
2022/09/14 06:33:58;;;;;;;8.07;2.13;;;;;;;18.88;97.06;99252.56;5055743;28;20036;-68
2022/09/14 06:36:25;;;;;;;7.65;2.47;;;;;;;18.90;97.25;99253.00;5059429;28;20544;-68
2022/09/14 06:38:50;;;;;;;6.50;2.40;;;;;;;18.90;96.63;99255.81;5037706;28;20542;-68
2022/09/14 06:41:19;;;;;;;6.95;2.28;;;;;;;18.90;97.60;99260.63;5046874;28;20028;-68
2022/09/14 06:43:45;;;;;;;7.72;2.10;;;;;;;18.93;97.13;99257.84;5072945;28;20024;-68
2022/09/14 06:46:22;;;;;;;10.57;2.70;;;;;;;18.94;99.83;99253.88;5031266;28;20039;-68
2022/09/14 06:48:56;;;;;;;8.07;2.38;;;;;;;18.96;98.71;99257.09;5065720;28;20032;-68
2022/09/14 06:51:25;;;;;;;8.15;2.28;;;;;;;19.00;97.80;99259.16;5048286;28;20558;-68
2022/09/14 06:53:52;;;;;;;6.35;2.30;;;;;;;19.02;97.47;99253.94;5053600;28;20172;-68
2022/09/14 06:56:18;;;;;;;8.43;2.63;;;;;;;19.05;97.89;99253.19;5052509;28;20089;-68
2022/09/14 06:58:43;;;;;;;8.18;2.30;;;;;;;19.05;96.79;99244.75;5054997;28;20040;-68
2022/09/14 07:01:13;;;;;;;9.63;2.30;;;;;;;19.08;97.01;99243.97;5077049;28;20044;-68
2022/09/14 07:03:40;;;;;;;5.63;2.00;;;;;;;19.12;97.45;99240.03;5046410;28;20497;-68
2022/09/14 07:06:07;;;;;;;6.88;1.80;;;;;;;19.16;98.36;99245.69;5047972;28;20058;-68
2022/09/14 07:08:33;;;;;;;7.18;2.20;;;;;;;19.18;97.22;99249.75;5069147;28;20067;-68
2022/09/14 07:10:59;;;;;;;9.38;2.33;;;;;;;19.21;99.28;99248.19;5059907;28;20020;-68
2022/09/14 07:13:24;;;;;;;7.75;2.53;;;;;;;19.24;100.00;99255.03;5066871;28;20086;-68
2022/09/14 07:15:50;;;;;;;4.53;1.83;;;;;;;19.27;98.48;99255.09;5060430;28;20043;-68
2022/09/14 07:18:16;;;;;;;11.05;2.40;;;;;;;19.30;100.00;99262.75;5076094;28;20122;-68
2022/09/14 07:20:41;;;;;;;7.18;2.63;;;;;;;19.34;100.00;99263.63;5077250;28;20669;-68
2022/09/14 07:23:07;;;;;;;7.38;2.33;;;;;;;19.39;98.84;99260.47;5049169;28;20042;-68
2022/09/14 07:25:32;;;;;;;5.63;2.20;;;;;;;19.41;100.00;99258.06;5055276;28;20024;-68
2022/09/14 07:27:59;;;;;;;7.70;2.15;;;;;;;19.46;100.00;99264.56;5050014;28;20665;-68
2022/09/14 07:30:26;;;;;;;7.82;1.80;;;;;;;19.47;98.14;99264.16;5070769;28;20557;-68
2022/09/14 07:32:52;;;;;;;7.00;1.92;;;;;;;19.54;98.21;99277.53;5073847;28;20027;-68
2022/09/14 07:35:18;;;;;;;5.35;1.80;;;;;;;19.59;98.87;99280.00;5043615;28;20055;-68
2022/09/14 07:37:43;;;;;;;6.80;2.20;;;;;;;19.63;99.44;99280.84;5062232;28;20024;-68
2022/09/14 07:40:09;;;;;;;6.18;2.60;;;;;;;19.68;99.66;99289.00;5065555;28;20043;-68
2022/09/14 07:42:36;;;;;;;8.10;2.30;;;;;;;19.70;99.10;99297.88;5078703;28;20036;-68
2022/09/14 07:45:03;;;;;;;6.22;1.98;;;;;;;19.74;97.54;99297.91;5045776;28;20110;-68
2022/09/14 07:47:28;;;;;;;6.72;1.90;;;;;;;19.77;94.91;99303.56;5072500;28;20028;-68
2022/09/14 07:49:54;;;;;;;8.27;2.30;;;;;;;19.85;96.02;99296.00;5077583;28;20032;-69
2022/09/14 07:52:19;;;;;;;9.60;2.35;;;;;;;19.90;96.73;99300.50;5059412;28;20365;-68
2022/09/14 07:54:45;;;;;;;6.05;1.98;;;;;;;19.95;95.70;99295.31;5060314;28;20035;-68
2022/09/14 07:57:11;;;;;;;7.45;2.17;;;;;;;20.01;95.64;99296.59;5062039;28;20039;-68
2022/09/14 07:59:37;;;;;;;7.78;2.60;;;;;;;20.06;96.91;99309.53;5063100;28;20044;-68
2022/09/14 08:02:04;;;;;;;6.35;1.83;;;;;;;20.11;94.85;99303.50;5030117;28;20051;-68
2022/09/14 08:04:30;;;;;;;10.07;2.35;;;;;;;20.21;96.16;99305.63;5041755;28;20055;-68
2022/09/14 08:06:55;;;;;;;8.27;2.17;;;;;;;20.28;97.00;99311.34;5065515;28;20073;-68
2022/09/14 08:09:21;;;;;;;9.18;2.35;;;;;;;20.36;96.48;99317.84;5058280;28;20028;-68
2022/09/14 08:11:46;;;;;;;8.57;2.10;;;;;;;20.46;96.23;99311.50;5078050;28;20096;-68
2022/09/14 08:14:12;;;;;;;6.63;2.00;;;;;;;20.57;92.71;99319.28;5060395;28;20032;-68
2022/09/14 08:16:39;;;;;;;8.57;1.90;;;;;;;20.71;93.02;99322.19;5062790;28;20023;-68
2022/09/14 08:19:06;;;;;;;7.10;1.88;;;;;;;20.86;92.58;99318.28;5060955;28;20024;-68
2022/09/14 08:21:32;;;;;;;5.40;1.77;;;;;;;21.02;92.25;99315.16;5044736;28;20064;-68
2022/09/14 08:23:58;;;;;;;6.57;1.92;;;;;;;21.19;93.22;99320.09;5054918;28;20031;-68
2022/09/14 08:26:24;;;;;;;8.32;1.75;;;;;;;21.35;90.71;99322.59;5077690;28;20039;-68
2022/09/14 08:28:50;;;;;;;6.63;1.63;;;;;;;21.57;92.27;99326.38;5065448;28;20054;-68
2022/09/14 08:31:17;;;;;;;8.23;1.63;;;;;;;21.77;90.94;99320.38;5027465;28;20032;-68
2022/09/14 08:33:44;;;;;;;6.72;1.73;;;;;;;21.96;89.43;99325.69;5043775;28;20126;-69
2022/09/14 08:36:11;;;;;;;5.22;1.40;;;;;;;22.15;88.42;99320.88;5037896;28;20473;-68
2022/09/14 08:38:36;;;;;;;8.68;1.60;;;;;;;22.30;88.33;99326.19;5055821;28;20029;-68
2022/09/14 08:41:18;;;;;;;7.82;1.70;;;;;;;22.47;87.28;99332.25;5062338;28;20573;-68
2022/09/14 08:43:44;;;;;;;6.60;1.40;;;;;;;22.61;86.26;99329.44;5043227;28;20467;-68
2022/09/14 08:46:21;;;;;;;5.70;1.30;;;;;;;22.73;85.74;99337.53;5044556;28;20056;-68
2022/09/14 08:48:47;;;;;;;3.85;1.10;;;;;;;22.85;84.63;99339.13;5042894;28;20050;-68
2022/09/14 08:51:12;;;;;;;5.97;1.60;;;;;;;22.95;83.49;99332.66;5057377;28;20029;-68
2022/09/14 08:53:39;;;;;;;6.93;1.25;;;;;;;23.05;82.70;99331.03;5039976;28;20032;-68
2022/09/14 08:56:24;;;;;;;8.38;1.58;;;;;;;23.22;82.50;99323.72;5054714;28;20024;-68
2022/09/14 08:59:08;;;;;;;5.80;1.02;;;;;;;23.39;82.56;99334.19;5039157;28;20118;-69
2022/09/14 09:01:44;;;;;;;4.93;1.30;;;;;;;23.63;82.46;99326.03;5066598;28;20108;-69
2022/09/14 09:04:36;;;;;;;3.83;1.02;;;;;;;23.86;81.51;99326.34;5040257;28;20033;-68
2022/09/14 09:07:23;;;;;;;7.90;1.27;;;;;;;24.13;81.01;99325.78;5052941;28;20031;-68
2022/09/14 09:09:51;;;;;;;5.07;1.15;;;;;;;24.37;79.04;99317.50;5077645;28;20475;-68
2022/09/14 09:12:21;;;;;;;3.85;0.80;;;;;;;24.60;78.00;99317.78;5057946;28;20034;-69
2022/09/14 09:14:57;;;;;;;4.93;0.93;;;;;;;24.86;76.19;99327.69;5061256;28;20024;-69
2022/09/14 09:17:30;;;;;;;5.82;1.17;;;;;;;25.08;75.69;99319.75;5079883;28;20487;-69
2022/09/14 09:20:15;;;;;;;4.32;1.05;;;;;;;25.27;73.86;99324.06;5027348;28;20034;-68
2022/09/14 09:23:06;;;;;;;4.15;1.20;;;;;;;25.43;72.11;99326.28;5077533;28;20696;-69
2022/09/14 09:25:56;;;;;;;5.70;0.93;;;;;;;25.60;71.25;99316.75;5051707;28;20048;-71
2022/09/14 09:28:22;;;;;;;2.80;0.80;;;;;;;25.76;71.63;99324.66;5072231;28;20636;-68
2022/09/14 09:30:48;;;;;;;4.70;0.93;;;;;;;25.87;71.35;99333.09;5063086;28;20031;-68
2022/09/14 09:33:20;;;;;;;4.03;0.98;;;;;;;26.02;71.65;99333.69;5064630;28;20035;-68
2022/09/14 09:35:45;;;;;;;4.45;0.93;;;;;;;26.16;71.44;99327.00;5042217;28;20021;-68
2022/09/14 09:38:15;;;;;;;6.38;1.13;;;;;;;26.30;70.78;99338.19;5068377;28;20047;-68
2022/09/14 09:40:43;;;;;;;5.70;1.00;;;;;;;26.44;69.76;99342.81;5069908;28;20033;-68
2022/09/14 09:43:11;;;;;;;6.60;1.20;;;;;;;26.53;67.77;99340.28;5067495;28;20032;-68
2022/09/14 09:45:59;;;;;;;5.22;0.88;;;;;;;26.66;66.96;99338.47;5064457;28;20024;-68
2022/09/14 09:48:28;;;;;;;6.10;1.40;;;;;;;26.79;67.43;99340.69;5064954;28;20077;-68
2022/09/14 09:51:13;;;;;;;4.07;0.93;;;;;;;26.85;65.90;99344.63;5068170;28;20032;-68
2022/09/14 09:53:54;;;;;;;5.60;1.30;;;;;;;26.93;65.24;99346.91;5084066;28;20055;-68
2022/09/14 09:56:25;;;;;;;7.32;1.33;;;;;;;27.06;67.00;99358.50;5038047;28;20092;-68
2022/09/14 09:58:51;;;;;;;5.93;1.33;;;;;;;27.14;65.26;99360.00;5046282;28;20098;-68
2022/09/14 10:01:25;;;;;;;5.10;1.15;;;;;;;27.25;66.00;99362.69;5046819;28;20056;-68
2022/09/14 10:04:15;;;;;;;8.15;0.85;;;;;;;27.36;64.92;99356.78;5039939;28;20038;-68
2022/09/14 10:06:48;;;;;;;6.95;1.00;;;;;;;27.44;65.30;99354.56;5037162;28;20389;-68
2022/09/14 10:09:18;;;;;;;3.88;0.90;;;;;;;27.55;65.29;99356.00;5054230;28;20370;-68
2022/09/14 10:11:44;;;;;;;6.00;1.10;;;;;;;27.62;65.45;99352.97;5047714;28;20107;-68
2022/09/14 10:14:25;;;;;;;3.90;1.02;;;;;;;27.71;66.00;99349.53;5055314;28;20036;-68
2022/09/14 10:16:50;;;;;;;4.22;0.93;;;;;;;27.75;63.09;99350.28;5065407;28;20029;-68
2022/09/14 10:19:21;;;;;;;4.85;1.20;;;;;;;27.77;62.59;99347.78;5055931;28;20024;-68
2022/09/14 10:22:15;;;;;;;3.08;1.00;;;;;;;27.82;62.59;99347.28;5064317;28;20116;-68
2022/09/14 10:24:40;;;;;;;6.30;0.85;;;;;;;27.83;61.91;99353.81;5079898;28;20040;-68
2022/09/14 10:27:35;;;;;;;7.13;1.00;;;;;;;27.90;62.56;99364.28;5046665;28;20028;-68
2022/09/14 10:30:05;;;;;;;3.70;1.00;;;;;;;27.92;61.89;99358.94;5042575;28;20481;-70
2022/09/14 10:32:30;;;;;;;4.00;0.98;;;;;;;27.95;61.46;99363.75;5045226;28;20029;-69
2022/09/14 10:34:57;;;;;;;2.90;0.90;;;;;;;28.00;61.43;99363.22;5045391;28;20070;-69
2022/09/14 10:37:36;;;;;;;4.22;1.20;;;;;;;28.02;60.74;99360.75;5036919;28;20093;-70
2022/09/14 10:40:06;;;;;;;4.45;0.95;;;;;;;28.06;59.08;99362.28;5060434;28;20034;-70
2022/09/14 10:42:42;;;;;;;8.10;1.70;;;;;;;28.14;60.32;99359.25;5077919;28;20035;-69
2022/09/14 10:45:13;;;;;;;5.30;1.05;;;;;;;28.18;60.79;99357.94;5063050;28;20115;-70
2022/09/14 10:47:50;;;;;;;6.82;1.30;;;;;;;28.24;59.77;99356.16;5058783;28;20029;-70
2022/09/14 10:50:40;;;;;;;4.22;0.98;;;;;;;28.38;60.79;99351.38;5059897;28;20500;-70
2022/09/14 10:53:13;;;;;;;4.40;0.88;;;;;;;28.47;61.21;99348.72;5058615;28;20028;-70
2022/09/14 10:55:43;;;;;;;3.47;0.77;;;;;;;28.63;60.11;99348.75;5062823;28;20036;-70
2022/09/14 10:58:16;;;;;;;4.97;1.20;;;;;;;28.81;58.60;99350.38;5098667;28;20040;-71
2022/09/14 11:01:23;;;;;;;6.63;1.15;;;;;;;29.02;57.87;99344.09;5066550;28;20056;-70
2022/09/14 11:04:14;;;;;;;6.63;1.30;;;;;;;29.25;56.79;99351.66;5094733;28;20135;-70
2022/09/14 11:06:45;;;;;;;6.10;1.08;;;;;;;29.38;56.04;99354.59;5078235;28;20101;-70
2022/09/14 11:09:25;;;;;;;5.78;0.80;;;;;;;29.51;55.83;99358.31;5046107;28;20034;-71
2022/09/14 11:12:33;;;;;;;4.25;1.02;;;;;;;29.61;54.27;99362.13;5079723;28;20032;-70
2022/09/14 11:15:16;;;;;;;3.85;1.10;;;;;;;29.78;53.14;99354.31;5045986;28;20387;-71
2022/09/14 11:18:14;;;;;;;4.88;0.82;;;;;;;29.92;54.38;99361.66;5074920;28;20547;-71
2022/09/14 11:21:00;;;;;;;4.65;1.13;;;;;;;30.02;52.26;99357.69;5088263;28;20040;-71
2022/09/14 11:23:54;;;;;;;3.17;0.95;;;;;;;30.16;52.95;99362.19;5060899;28;20047;-71
2022/09/14 11:26:57;;;;;;;4.65;0.93;;;;;;;30.28;52.25;99359.38;5074165;28;20033;-72
2022/09/14 11:29:29;;;;;;;4.78;0.98;;;;;;;30.38;52.36;99354.53;5055389;28;20064;-72
2022/09/14 11:32:04;;;;;;;4.00;0.80;;;;;;;30.40;51.41;99352.03;5070910;28;20033;-72
2022/09/14 11:34:53;;;;;;;4.32;1.00;;;;;;;30.49;51.23;99363.59;5041795;28;20044;-72
2022/09/14 11:37:20;;;;;;;5.47;0.95;;;;;;;30.56;51.42;99359.69;5054566;28;20039;-72
2022/09/14 11:40:02;;;;;;;5.93;0.98;;;;;;;30.63;50.61;99367.25;5044059;28;20032;-72
2022/09/14 11:42:44;;;;;;;3.40;0.70;;;;;;;30.66;50.48;99366.34;5050942;28;20082;-72
2022/09/14 11:45:16;;;;;;;4.70;0.88;;;;;;;30.71;50.01;99365.78;5034624;28;20036;-72